This is the latest recevied weather packets stored in our database for station/object VK2KGV-15. If no packets are shown the sender has not sent any weather packets the latest 10 day(s).
| Time | Temp. | Humidity | Pressure | Rain* | Wind** | Luminosity | Snow |
|---|---|---|---|---|---|---|---|
| 1777434562 | 25° C | 36% | 1022.8 hPa | 0 mm | - | - | - |
| 1777433356 | 25° C | 36% | 1022.8 hPa | 0 mm | - | - | - |
| 1777431546 | 24.44° C | 39% | 1023.3 hPa | 0 mm | - | - | - |
| 1777429737 | 24.44° C | 39% | 1023.6 hPa | 0 mm | - | - | - |
| 1777428531 | 24.44° C | 40% | 1023.9 hPa | 0 mm | - | - | - |
| 1777426118 | 23.89° C | 42% | 1024.6 hPa | 0 mm | - | - | - |
| 1777424912 | 23.33° C | 45% | 1025 hPa | 0 mm | - | - | - |
| 1777424309 | 23.33° C | 45% | 1025.1 hPa | 0 mm | - | - | - |
| 1777423706 | 22.78° C | 46% | 1025.3 hPa | 0 mm | - | - | - |
| 1777422500 | 22.78° C | 47% | 1025.5 hPa | 0 mm | - | - | - |
| 1777420087 | 22.22° C | 49% | 1025.5 hPa | 0 mm | - | - | - |
| 1777418278 | 21.11° C | 51% | 1025.6 hPa | 0 mm | - | - | - |
| 1777417675 | 21.11° C | 52% | 1025.8 hPa | 0 mm | - | - | - |
| 1777416469 | 18.89° C | 59% | 1025.9 hPa | 0 mm | - | - | - |
| 1777415262 | 18.33° C | 66% | 1026.1 hPa | 0 mm | - | - | - |
| 1777408628 | 6.67° C | 89% | 1026.2 hPa | 0 mm | - | - | - |
| 1777408025 | 6.67° C | 89% | 1026 hPa | 0 mm | - | - | - |
| 1777406819 | 6.67° C | 88% | 1025.7 hPa | 0 mm | - | - | - |
| 1777405612 | 7.22° C | 88% | 1025.4 hPa | 0 mm | - | - | - |
| 1777404406 | 7.78° C | 88% | 1025.1 hPa | 0 mm | - | - | - |
| 1777403803 | 7.78° C | 87% | 1024.9 hPa | 0 mm | - | - | - |
| 1777403200 | 8.33° C | 87% | 1024.7 hPa | 0 mm | - | - | - |
| 1777401994 | 8.33° C | 88% | 1024.6 hPa | 0 mm | - | - | - |
| 1777400788 | 8.33° C | 86% | 1024.7 hPa | 0 mm | - | - | - |
| 1777399582 | 8.89° C | 86% | 1024.7 hPa | 0 mm | - | - | - |
* Rain since midnight (hover to see other rain measurements)
** Current wind speed in m/s (hover to see current wind gust speed)